Alakanuk, AK (99554)

11:32 PM AKDT on September 30, 2014 (GMT -0800)
Emmonak | Change Station
CLOSE
Current Station
Airport
Location: Emmonak,
Elevation: 13 ft
Nearby Weather Stations

Elev 13 ft 62.79 °N, 164.49 °W | Updated 36 minutes ago

Overcast
Overcast
43 °F
Feels Like 39 °F
N
7
Wind Variable Wind from SW

Today
High -- | Low -- °F
--% Chance of Precip.
Yesterday
High -- | Low -- °F
Precip. -- in
9:03 AM 8:30 PM
Waxing Crescent, 45% visible
Pressure 30.36 in
Visibility 10.0 miles
Clouds Overcast 4000 ft
Windchill 39 °F
Dew Point 36 °F
Humidity 76%
Rainfall 0.00 in
Snow Depth 3 in , 77 in , 3 in
UV 0 out of 12
Pollen Not available.
Air Quality Not available.
Flu Activity Not available.
METAR PAEM 010656Z 23006KT 10SM OVC040 06/02 A3036 RMK AO1

More Conditions Fewer Conditions

Pressure 30.36 in
Visibility 10.0 miles
Clouds Overcast 4000 ft
Windchill 39 °F
Dew Point 36 °F
Humidity 76%
Rainfall 0.00 in
Snow Depth 3 in , 77 in , 3 in
UV 0 out of 12
Pollen Not available.
Air Quality Not available.
Flu Activity Not available.
METAR PAEM 010656Z 23006KT 10SM OVC040 06/02 A3036 RMK AO1

More Conditions Fewer Conditions

10-Day Weather Forecast

Almanac

Astronomy

Sep. 30, 2014 Rise Set
Actual Time 9:03 AM AKDT 8:30 PM AKDT
Civil Twilight 8:18 AM AKDT 9:16 PM AKDT
Nautical Twilight 7:25 AM AKDT 10:09 PM AKDT
Astronomical Twilight 6:27 AM AKDT 11:06 PM AKDT
Moon 4:54 PM AKDT (9/30) 11:44 PM AKDT (9/30)
Length of Visible Light 12h 57m
Length of Day
11h 26m
Tomorrow will be 6m 2s shorter.
Waxing Crescent, 45% of the Moon is Illuminated
Oct 1
Waxing Crescent
Oct 1
First Quarter
Oct 8
Full
Oct 15
Last Quarter
Oct 23
New

Community

WunderPhotos

Upload Photos

1,757,898 photos uploaded!

Nearby

Snow Depth

Station Depth Elevation
Rocky Point 3 in 500 ft
Eagle Summit 77 in 3650 ft
Coldfoot 3 in 1040 ft
Gobblers Knob 4 in 2030 ft
Upper Chena 7 in 2850 ft

Earthquake Activity

City Distance Mag. Time & Date
No recent earthquake activity has been reported nearby.
Minimum magnitude displayed is 2.5.

Coastal Water Temperatures

Place Temperature
No Stations Reporting

Nearby Weather Stations